createdAt,value
2022-10-21T00:02:53.115Z,0.40
2022-10-21T00:05:54.673Z,0.50
2022-10-21T00:08:56.358Z,0.63
2022-10-21T00:11:57.966Z,0.50
2022-10-21T00:14:59.672Z,0.40
2022-10-21T00:18:01.663Z,0.40
2022-10-21T00:21:12.840Z,0.70
2022-10-21T00:24:14.368Z,0.60
2022-10-21T00:27:15.989Z,0.68
2022-10-21T00:30:18.598Z,0.40
2022-10-21T00:33:20.510Z,0.32
2022-10-21T00:36:22.121Z,0.40
2022-10-21T00:39:23.803Z,0.43
2022-10-21T00:42:33.476Z,0.30
2022-10-21T00:45:34.993Z,0.65
2022-10-21T00:48:42.429Z,0.50
2022-10-21T00:51:47.781Z,0.43
2022-10-21T00:54:52.996Z,0.40
2022-10-21T00:57:55.879Z,0.40
2022-10-21T01:00:59.666Z,0.30
2022-10-21T01:04:03.447Z,0.30
2022-10-21T01:07:05.708Z,0.40
2022-10-21T01:10:07.836Z,0.60
2022-10-21T01:13:19.621Z,0.38
2022-10-21T01:16:30.842Z,0.40
2022-10-21T01:19:58.060Z,0.40
2022-10-21T01:23:30.512Z,0.60
2022-10-21T01:26:56.952Z,0.30
2022-10-21T01:30:14.220Z,0.47
2022-10-21T01:33:18.582Z,0.45
2022-10-21T01:36:44.612Z,0.30
2022-10-21T01:40:00.533Z,0.40
2022-10-21T01:43:14.463Z,0.40
2022-10-21T01:46:22.967Z,0.50
2022-10-21T01:49:35.795Z,0.40
2022-10-21T01:52:41.307Z,0.50
2022-10-21T01:55:45.314Z,0.60
2022-10-21T01:58:49.161Z,0.47
2022-10-21T02:01:52.236Z,0.60
2022-10-21T02:04:57.022Z,0.50
2022-10-21T02:07:58.618Z,0.60
2022-10-21T02:11:05.499Z,0.50
2022-10-21T02:14:23.464Z,0.47
2022-10-21T02:17:27.247Z,0.60
2022-10-21T02:20:31.987Z,0.50
2022-10-21T02:23:48.022Z,0.60
2022-10-21T02:26:49.802Z,0.50
2022-10-21T02:29:57.178Z,0.32
2022-10-21T02:33:48.327Z,0.40
2022-10-21T02:36:53.476Z,0.40
2022-10-21T02:40:12.125Z,0.40
2022-10-21T02:43:25.942Z,0.35
2022-10-21T02:46:36.871Z,0.20
2022-10-21T02:49:38.381Z,0.30
2022-10-21T02:52:40.180Z,0.38
2022-10-21T02:55:41.709Z,0.30
2022-10-21T02:58:43.212Z,0.40
2022-10-21T03:01:44.796Z,0.40
2022-10-21T03:04:46.329Z,0.30
2022-10-21T03:07:47.840Z,0.40
2022-10-21T03:10:53.081Z,0.50
2022-10-21T03:13:55.173Z,0.50
2022-10-21T03:16:56.714Z,0.30
2022-10-21T03:19:58.280Z,0.38
2022-10-21T03:23:00.949Z,0.30
2022-10-21T03:26:02.536Z,0.40
2022-10-21T03:29:04.088Z,0.30
2022-10-21T03:32:05.809Z,0.40
2022-10-21T03:35:08.038Z,0.38
2022-10-21T03:38:09.578Z,0.30
2022-10-21T03:41:11.101Z,0.30
2022-10-21T03:44:12.640Z,0.30
2022-10-21T03:47:14.203Z,0.30
2022-10-21T03:50:18.339Z,0.20
2022-10-21T03:53:42.099Z,0.35
2022-10-21T03:56:44.657Z,0.20
2022-10-21T03:59:46.173Z,0.30
2022-10-21T04:02:48.363Z,0.30
2022-10-21T04:05:49.876Z,0.25
2022-10-21T04:08:52.732Z,0.20
2022-10-21T04:11:54.342Z,0.30
2022-10-21T04:14:55.900Z,0.30
2022-10-21T04:17:57.472Z,0.20
2022-10-21T04:20:58.980Z,0.40
2022-10-21T04:24:00.524Z,0.30
2022-10-21T04:27:02.097Z,0.30
2022-10-21T04:30:04.374Z,0.20
2022-10-21T04:33:06.138Z,0.40
2022-10-21T04:36:07.976Z,0.40
2022-10-21T04:39:09.555Z,0.30
2022-10-21T04:42:11.135Z,0.30
2022-10-21T04:45:12.689Z,0.40
2022-10-21T04:48:14.204Z,0.28
2022-10-21T04:51:15.857Z,0.43
2022-10-21T04:54:17.528Z,0.20
2022-10-21T04:57:20.478Z,0.25
2022-10-21T05:00:22.052Z,0.30
2022-10-21T05:03:23.749Z,0.30
2022-10-21T05:06:25.365Z,0.40
2022-10-21T05:09:26.896Z,0.40
2022-10-21T05:12:28.441Z,0.30
2022-10-21T05:15:29.972Z,0.30
2022-10-21T05:18:31.713Z,0.30
2022-10-21T05:21:33.287Z,0.20
2022-10-21T05:24:34.881Z,0.38
2022-10-21T05:27:36.494Z,0.45
2022-10-21T05:30:38.108Z,0.30
2022-10-21T05:33:39.640Z,0.38
2022-10-21T05:36:41.175Z,0.30
2022-10-21T05:39:42.698Z,0.40
2022-10-21T05:42:45.704Z,0.30
2022-10-21T05:45:47.301Z,0.30
2022-10-21T05:51:55.261Z,0.30
2022-10-21T05:54:56.803Z,0.30
2022-10-21T05:57:59.435Z,0.20
2022-10-21T06:01:01.506Z,0.20
2022-10-21T06:04:03.119Z,0.30
2022-10-21T06:07:04.667Z,0.38
2022-10-21T06:10:06.705Z,0.40
2022-10-21T06:13:08.536Z,0.30
2022-10-21T06:16:11.857Z,0.28
2022-10-21T06:19:13.397Z,0.30
2022-10-21T06:22:15.403Z,0.35
2022-10-21T06:28:23.951Z,0.30
2022-10-21T06:31:25.559Z,0.40
2022-10-21T06:34:27.093Z,0.45
2022-10-21T06:37:28.622Z,0.40
2022-10-21T06:40:30.147Z,0.28
2022-10-21T06:43:32.033Z,0.35
2022-10-21T06:46:33.625Z,0.30
2022-10-21T06:49:35.220Z,0.30
2022-10-21T06:52:36.751Z,0.20
2022-10-21T06:55:38.307Z,0.20
2022-10-21T06:58:43.419Z,0.30
2022-10-21T07:02:01.128Z,0.20
2022-10-21T07:05:03.099Z,0.30
2022-10-21T07:08:04.971Z,0.30
2022-10-21T07:11:08.060Z,0.30
2022-10-21T07:14:09.639Z,0.40
2022-10-21T07:17:11.200Z,0.30
2022-10-21T07:20:12.741Z,0.30
2022-10-21T07:23:14.266Z,0.30
2022-10-21T07:26:15.820Z,0.28
2022-10-21T07:29:18.217Z,0.20
2022-10-21T07:32:19.789Z,0.30
2022-10-21T07:35:21.354Z,0.40
2022-10-21T07:38:23.000Z,0.30
2022-10-21T07:41:32.007Z,0.30
2022-10-21T07:44:33.544Z,0.25
2022-10-21T07:47:35.116Z,0.40
2022-10-21T07:50:37.323Z,0.30
2022-10-21T07:53:39.969Z,0.30
2022-10-21T07:56:44.409Z,0.30
2022-10-21T07:59:45.946Z,0.30
2022-10-21T08:02:47.510Z,0.30
2022-10-21T08:05:49.099Z,0.50
2022-10-21T08:08:50.761Z,0.30
2022-10-21T08:11:52.522Z,0.43
2022-10-21T08:14:54.041Z,0.30
2022-10-21T08:17:55.556Z,0.30
2022-10-21T08:20:57.148Z,0.30
2022-10-21T08:24:01.176Z,0.50
2022-10-21T08:27:05.109Z,0.32
2022-10-21T08:30:06.961Z,0.30
2022-10-21T08:33:08.544Z,0.45
2022-10-21T08:36:17.600Z,0.47
2022-10-21T08:39:19.215Z,0.50
2022-10-21T08:42:21.083Z,0.50
2022-10-21T08:45:39.021Z,0.60
2022-10-21T08:48:48.001Z,0.50
2022-10-21T08:51:58.785Z,0.50
2022-10-21T08:55:03.334Z,0.32
2022-10-21T08:58:05.923Z,0.25
2022-10-21T09:01:32.671Z,0.40
2022-10-21T09:04:53.255Z,0.30
2022-10-21T09:08:18.462Z,0.30
2022-10-21T09:11:35.436Z,0.20
2022-10-21T09:15:08.823Z,0.28
2022-10-21T09:18:21.364Z,0.17
2022-10-21T09:21:44.822Z,0.20
2022-10-21T09:24:53.310Z,0.20
2022-10-21T09:27:57.196Z,0.20
2022-10-21T09:31:02.454Z,0.30
2022-10-21T09:34:15.292Z,0.20
2022-10-21T09:37:42.098Z,0.20
2022-10-21T09:40:47.269Z,0.30
2022-10-21T09:43:49.757Z,0.30
2022-10-21T09:46:53.673Z,0.30
2022-10-21T09:50:08.399Z,0.30
2022-10-21T09:53:25.588Z,0.40
2022-10-21T09:56:35.862Z,0.30
2022-10-21T09:59:54.077Z,0.20
2022-10-21T10:02:55.605Z,0.30
2022-10-21T10:05:57.740Z,0.30
2022-10-21T10:09:14.454Z,0.20
2022-10-21T10:12:21.678Z,0.17
2022-10-21T10:15:31.483Z,0.30
2022-10-21T10:18:33.302Z,0.20
2022-10-21T10:21:34.857Z,0.20
2022-10-21T10:24:37.336Z,0.20
2022-10-21T10:27:50.964Z,0.20
2022-10-21T10:30:55.845Z,0.20
2022-10-21T10:34:03.580Z,0.20
2022-10-21T10:37:15.512Z,0.20
2022-10-21T10:40:23.433Z,0.20
2022-10-21T10:43:30.428Z,0.22
2022-10-21T10:46:33.860Z,0.20
2022-10-21T10:49:41.524Z,0.20
2022-10-21T10:52:43.105Z,0.10
2022-10-21T10:59:09.208Z,0.10
2022-10-21T11:02:11.487Z,0.20
2022-10-21T11:05:31.943Z,0.20
2022-10-21T11:08:41.356Z,0.10
2022-10-21T11:11:48.580Z,0.20
2022-10-21T11:14:53.253Z,0.10
2022-10-21T11:18:17.020Z,0.20
2022-10-21T11:21:53.461Z,0.20
2022-10-21T11:25:26.949Z,0.10
2022-10-21T11:28:56.845Z,0.10
2022-10-21T11:32:12.341Z,0.13
2022-10-21T11:35:17.090Z,0.10
2022-10-21T11:38:37.080Z,0.10
2022-10-21T11:41:48.857Z,0.10
2022-10-21T11:45:08.754Z,0.20
2022-10-21T11:48:28.324Z,0.10
2022-10-21T11:51:54.228Z,0.13
2022-10-21T11:55:08.721Z,0.10
2022-10-21T11:58:41.340Z,0.20
2022-10-21T12:02:10.829Z,0.10
2022-10-21T12:05:31.404Z,0.10
2022-10-21T12:08:43.180Z,0.20
2022-10-21T12:11:57.294Z,0.20
2022-10-21T12:15:02.587Z,0.10
2022-10-21T12:18:06.116Z,0.13
2022-10-21T12:21:15.972Z,0.10
2022-10-21T12:24:33.876Z,0.10
2022-10-21T12:27:44.436Z,0.10
2022-10-21T12:30:55.497Z,0.20
2022-10-21T12:33:57.851Z,0.13
2022-10-21T12:36:59.480Z,0.10
2022-10-21T12:40:13.756Z,0.20
2022-10-21T12:43:28.677Z,0.10
2022-10-21T12:46:47.108Z,0.10
2022-10-21T12:50:18.275Z,0.20
2022-10-21T12:53:31.672Z,0.10
2022-10-21T12:56:43.928Z,0.10
2022-10-21T12:59:45.428Z,0.20
2022-10-21T13:03:07.904Z,0.10
2022-10-21T13:06:09.576Z,0.20
2022-10-21T13:09:31.766Z,0.10
2022-10-21T13:12:33.684Z,0.10
2022-10-21T13:15:47.196Z,0.10
2022-10-21T13:18:59.149Z,0.10
2022-10-21T13:22:03.397Z,0.10
2022-10-21T13:25:31.548Z,0.20
2022-10-21T13:28:34.254Z,0.10
2022-10-21T13:31:36.377Z,0.10
2022-10-21T13:34:42.659Z,0.10
2022-10-21T13:38:03.644Z,0.10
2022-10-21T13:41:18.167Z,0.20
2022-10-21T13:44:27.607Z,0.10
2022-10-21T13:47:34.523Z,0.10
2022-10-21T13:50:40.455Z,0.20
2022-10-21T13:53:45.751Z,0.10
2022-10-21T13:56:47.937Z,0.15
2022-10-21T14:00:00.993Z,0.10
2022-10-21T14:03:05.218Z,0.10
2022-10-21T14:06:09.639Z,0.10
2022-10-21T14:09:20.788Z,0.10
2022-10-21T14:12:25.210Z,0.10
2022-10-21T14:15:39.660Z,0.10
2022-10-21T14:18:46.372Z,0.10
2022-10-21T14:21:52.473Z,0.10
2022-10-21T14:24:56.879Z,0.10
2022-10-21T14:28:01.411Z,0.10
2022-10-21T14:34:25.820Z,0.10
2022-10-21T14:37:41.681Z,0.10
2022-10-21T14:40:43.279Z,0.20
2022-10-21T14:43:46.193Z,0.10
2022-10-21T14:46:50.160Z,0.10
2022-10-21T14:49:59.857Z,0.10
2022-10-21T14:53:01.644Z,0.20
2022-10-21T14:56:06.624Z,0.10
2022-10-21T14:59:18.517Z,0.10
2022-10-21T15:02:25.400Z,0.20
2022-10-21T15:05:32.036Z,0.10
2022-10-21T15:08:33.667Z,0.10
2022-10-21T15:11:38.788Z,0.20
2022-10-21T15:14:40.384Z,0.10
2022-10-21T15:17:42.166Z,0.13
2022-10-21T15:20:54.300Z,0.20
2022-10-21T15:23:59.132Z,0.10
2022-10-21T15:27:02.011Z,0.10
2022-10-21T15:30:17.169Z,0.20
2022-10-21T15:33:18.701Z,0.10
2022-10-21T15:36:20.549Z,0.20
2022-10-21T15:39:22.128Z,0.20
2022-10-21T15:42:24.006Z,0.13
2022-10-21T15:45:25.644Z,0.10
2022-10-21T15:48:28.128Z,0.10
2022-10-21T15:51:29.670Z,0.10
2022-10-21T15:54:31.620Z,0.10
2022-10-21T15:57:33.208Z,0.20
2022-10-21T16:00:39.991Z,0.20
2022-10-21T16:03:44.022Z,0.10
2022-10-21T16:06:49.713Z,0.15
2022-10-21T16:09:51.340Z,0.10
2022-10-21T16:12:52.952Z,0.10
2022-10-21T16:15:55.026Z,0.20
2022-10-21T16:18:56.676Z,0.10
2022-10-21T16:21:58.219Z,0.20
2022-10-21T16:24:59.805Z,0.10
2022-10-21T16:28:01.728Z,0.20
2022-10-21T16:31:04.592Z,0.22
2022-10-21T16:34:06.130Z,0.70
2022-10-21T16:37:24.721Z,0.40
2022-10-21T16:40:33.117Z,0.40
2022-10-21T16:43:34.652Z,0.20
2022-10-21T16:46:49.288Z,0.30
2022-10-21T16:49:50.876Z,0.30
2022-10-21T16:52:52.459Z,0.20
2022-10-21T16:55:54.025Z,0.22
2022-10-21T16:58:55.886Z,0.15
2022-10-21T17:02:00.877Z,0.20
2022-10-21T17:05:02.467Z,0.10
2022-10-21T17:08:04.144Z,0.20
2022-10-21T17:11:07.986Z,0.10
2022-10-21T17:14:15.683Z,0.20
2022-10-21T17:17:18.961Z,0.10
2022-10-21T17:20:20.632Z,0.20
2022-10-21T17:23:23.469Z,0.10
2022-10-21T17:26:25.423Z,0.15
2022-10-21T17:29:26.984Z,0.10
2022-10-21T17:32:28.631Z,0.15
2022-10-21T17:35:30.285Z,0.55
2022-10-21T17:38:31.819Z,1.20
2022-10-21T17:41:33.659Z,0.70
2022-10-21T17:44:35.285Z,0.40
2022-10-21T17:47:37.091Z,0.30
2022-10-21T17:50:38.727Z,0.40
2022-10-21T17:53:40.278Z,0.28
2022-10-21T17:56:41.878Z,0.20
2022-10-21T17:59:44.757Z,0.20
2022-10-21T18:02:46.311Z,0.20
2022-10-21T18:05:47.911Z,0.10
2022-10-21T18:08:49.846Z,0.20
2022-10-21T18:11:51.444Z,0.10
2022-10-21T18:14:53.137Z,0.15
2022-10-21T18:17:55.149Z,0.10
2022-10-21T18:21:01.866Z,0.13
2022-10-21T18:24:04.868Z,0.10
2022-10-21T18:27:08.987Z,0.20
2022-10-21T18:30:11.141Z,0.10
2022-10-21T18:33:12.680Z,0.20
2022-10-21T18:36:15.915Z,0.13
2022-10-21T18:39:17.642Z,0.20
2022-10-21T18:42:19.512Z,0.20
2022-10-21T18:45:21.065Z,0.20
2022-10-21T18:48:22.660Z,0.10
2022-10-21T18:51:24.478Z,0.20
2022-10-21T18:54:26.060Z,0.10
2022-10-21T18:57:27.613Z,0.20
2022-10-21T19:00:29.212Z,0.20
2022-10-21T19:03:31.533Z,0.17
2022-10-21T19:06:42.008Z,0.10
2022-10-21T19:09:44.270Z,0.10
2022-10-21T19:12:45.826Z,0.20
2022-10-21T19:15:47.559Z,0.20
2022-10-21T19:18:49.252Z,0.20
2022-10-21T19:21:50.820Z,0.20
2022-10-21T19:24:52.825Z,0.10
2022-10-21T19:27:54.429Z,0.20
2022-10-21T19:30:56.009Z,0.20
2022-10-21T19:33:57.574Z,0.10
2022-10-21T19:36:59.091Z,0.17
2022-10-21T19:40:00.781Z,0.13
2022-10-21T19:43:02.326Z,0.17
2022-10-21T19:46:07.846Z,0.10
2022-10-21T19:49:11.984Z,0.10
2022-10-21T19:52:13.475Z,0.20
2022-10-21T19:55:16.220Z,0.20
2022-10-21T19:58:17.709Z,0.20
2022-10-21T20:01:22.681Z,0.13
2022-10-21T20:04:24.810Z,0.20
2022-10-21T20:07:26.437Z,0.20
2022-10-21T20:10:28.407Z,0.20
2022-10-21T20:13:30.529Z,0.20
2022-10-21T20:16:37.647Z,0.25
2022-10-21T20:19:39.220Z,0.20
2022-10-21T20:22:41.063Z,0.30
2022-10-21T20:25:47.845Z,0.30
2022-10-21T20:28:50.865Z,0.20
2022-10-21T20:31:52.458Z,0.20
2022-10-21T20:34:53.974Z,0.10
2022-10-21T20:37:55.900Z,0.10
2022-10-21T20:41:06.105Z,0.15
2022-10-21T20:44:12.213Z,0.20
2022-10-21T20:47:13.733Z,0.10
2022-10-21T20:50:15.485Z,0.20
2022-10-21T20:53:17.040Z,0.10
2022-10-21T20:56:19.352Z,0.20
2022-10-21T20:59:20.960Z,0.17
2022-10-21T21:02:22.497Z,0.10
2022-10-21T21:05:24.055Z,0.20
2022-10-21T21:08:25.565Z,0.20
2022-10-21T21:11:27.115Z,0.20
2022-10-21T21:14:28.705Z,0.10
2022-10-21T21:17:30.254Z,0.10
2022-10-21T21:20:31.845Z,0.15
2022-10-21T21:23:33.734Z,0.20
2022-10-21T21:26:37.849Z,0.10
2022-10-21T21:29:39.476Z,0.15
2022-10-21T21:32:41.111Z,0.20
2022-10-21T21:35:42.784Z,0.20
2022-10-21T21:38:44.356Z,0.20
2022-10-21T21:41:46.448Z,0.20
2022-10-21T21:44:48.388Z,0.10
2022-10-21T21:47:49.942Z,0.10
2022-10-21T21:50:51.627Z,0.50
2022-10-21T21:53:53.353Z,0.20
2022-10-21T21:57:15.993Z,0.20
2022-10-21T22:00:16.481Z,0.20
2022-10-21T22:03:18.009Z,0.15
2022-10-21T22:06:21.736Z,0.20
2022-10-21T22:09:23.357Z,0.10
2022-10-21T22:12:26.032Z,0.20
2022-10-21T22:15:47.034Z,0.20
2022-10-21T22:18:49.532Z,0.10
2022-10-21T22:21:51.052Z,0.10
2022-10-21T22:24:52.762Z,0.20
2022-10-21T22:27:54.286Z,0.20
2022-10-21T22:30:57.493Z,0.10
2022-10-21T22:34:00.837Z,0.20
2022-10-21T22:37:02.437Z,0.20
2022-10-21T22:40:04.360Z,0.13
2022-10-21T22:43:05.924Z,0.20
2022-10-21T22:49:29.179Z,0.15
2022-10-21T22:52:30.797Z,0.15
2022-10-21T22:55:32.721Z,0.17
2022-10-21T22:58:34.377Z,0.10
2022-10-21T23:01:36.007Z,0.20
2022-10-21T23:04:37.710Z,0.10
2022-10-21T23:07:39.266Z,0.13
2022-10-21T23:10:41.030Z,0.20
2022-10-21T23:13:56.095Z,0.10
2022-10-21T23:17:04.085Z,0.20
2022-10-21T23:20:06.349Z,0.15
2022-10-21T23:23:07.882Z,0.10
2022-10-21T23:26:09.630Z,0.20
2022-10-21T23:29:11.419Z,0.10
2022-10-21T23:32:12.988Z,0.20
2022-10-21T23:35:15.444Z,0.20
2022-10-21T23:38:17.189Z,0.20
2022-10-21T23:41:18.744Z,0.20
2022-10-21T23:44:20.458Z,0.13
2022-10-21T23:47:21.985Z,0.10
2022-10-21T23:50:23.853Z,0.20
2022-10-21T23:53:25.451Z,0.10
2022-10-21T23:56:27.059Z,0.20
2022-10-21T23:59:28.629Z,0.20
